<< Go Back

Eastside Turkey
Date: Nov. 26, 2015
Results by Everal Race Management
Contact for Race Timing

 Men: Top Finishers 1- 9 10-14 15-19 20-24 25-29 30-34 35-39 40-44 45-49 50-54 55-59 60-64 65-69 70-74 75-79 80-84 85-99 

Women: Top Finishers 0- 0 1- 9 10-14 15-19 20-24 25-29 30-34 35-39 40-44 45-49 50-54 55-59 60-64 65-69 70-74 75-79


Top

Male Overall Winners




Total
Place Name City Bib No Age Overall Time Pace
1 Bo Waggoner Maumee OH 865 26 1 14:43 4:45/M
Top


Female Overall Winners




Total
Place Name City Bib No Age Overall Time Pace
1 Paige Biglin Columbus OH 483 32 13 18:52 6:05/M
Top


Male Masters Winners




Total
Place Name City Bib No Age Overall Time Pace
1 Shawn Jackson Youngstown OH 804 40 8 17:34 5:40/M
Top


Female Masters Winners




Total
Place Name City Bib No Age Overall Time Pace
1 Mary Dressel Whitehouse OH 877 42 72 22:10 7:09/M
Top


Male Grand Masters Winners




Total
Place Name City Bib No Age Overall Time Pace
1 Timothy Mooney Toledo OH 421 55 31 20:17 6:33/M
Top


Female Grand Masters Winners




Total
Place Name City Bib No Age Overall Time Pace
1 Lisa A. Stevens Perrysburg OH 299 51 76 22:23 7:13/M
Top


NO AGE PROVIDED




Total
Place Name City Bib No Age Overall Time Pace
1 Mitzi Mazzullo Perrysburg 920 0 807 39:53 12:52/M
Top


Male 9 & under




Total
Place Name City Bib No Age Overall Time Pace
1 Ben Roberts Oregon OH 914 8 212 25:21 8:11/M
2 Steven Aziz Oregon OH 260 9 278 26:38 8:35/M
3 Brayden Mefferd Toledo OH 696 9 315 27:23 8:50/M
4 Brady Zilles Perrysburg OH 690 9 325 27:31 8:53/M
5 Aj Mazzullo Perrysburg 919 7 382 28:18 9:08/M
6 Jasper Koch Rossford 947 8 405 28:37 9:14/M
7 Austin Ganues Toledo OH 440 8 451 29:27 9:30/M
8 Adrik Ruch Toledo OH 435 9 551 31:50 10:16/M
9 Cole Akins Oregon OH 1020 9 559 32:00 10:19/M
10 Nicholas Swan Findlay OH 692 9 570 32:11 10:23/M
11 Crate Newton Oregon OH 264 9 591 32:35 10:31/M
12 Kellen Flahie Holt OH 701 6 621 33:23 10:46/M
13 Isaiah Kinn Oregon OH 779 7 648 34:02 10:59/M
14 Seth Rister Toledo OH 441 7 676 34:47 11:13/M
15 Wyatt R Ulrich Ellicott City MD 1043 9 734 36:55 11:55/M
16 Chase Vriezelaar Oregon OH 266 7 764 37:51 12:13/M
17 Logan Dokurno Oregon OH 261 8 771 38:26 12:24/M
18 Emerson Przybylski Oregon OH 265 7 773 38:28 12:25/M
19 Raymond Jurski Oregon OH 263 8 785 39:00 12:35/M
20 Andrew Brauer Northwood OH 704 9 798 39:47 12:50/M
21 Daniel Genzman Northwood OH 141 8 801 39:49 12:51/M
22 Brady Williams Maumee OH 691 9 803 39:52 12:52/M
23 Jonah Buckner Oregon OH 1030 9 812 40:04 12:55/M
24 Will Buckner Oregon OH 1036 7 814 40:07 12:56/M
25 Luke Schnee Curtice OH 25 9 818 40:13 12:58/M
26 Wade Ulrich Ellicott City MD 1042 6 825 40:36 13:06/M
27 Nick Shriner Arlington 694 7 840 40:59 13:13/M
28 Michael Luther Oregon OH 983 5 869 42:23 13:40/M
29 Caleb Baker Oregon OH 221 8 886 44:07 14:14/M
30 Dawson Davenport Walbridge 448 7 914 46:29 15:00/M
31 Braden Lesher Genoa 45 7 946 49:28 15:57/M
32 Joey Gernert Oregon OH 240 8 969 52:44 17:01/M
33 Jason Justice Toledo OH 1064 9 986 53:45 17:20/M
Top


Female 9 & under




Total
Place Name City Bib No Age Overall Time Pace
1 Miriam Fowler Northwood OH 473 7 169 24:32 7:55/M
2 Lucy Porter Toledo OH 460 9 175 24:38 7:57/M
3 Kylie Niedzwiecki Toledo OH 464 9 193 25:02 8:05/M
4 Faith Krueger Perrysburg OH 308 9 316 27:25 8:51/M
5 Delaney Heinze Toledo OH 409 9 601 32:48 10:35/M
6 Lydia Roberts Oregon OH 208 9 602 32:51 10:36/M
7 Madelyn Lesniewicz Oregon OH 205 9 615 33:13 10:43/M
8 Addison Csehi Oregon OH 1055 8 642 33:50 10:55/M
9 Amelia Flahie Holt MI 475 8 646 34:00 10:58/M
10 Anna Reed Toledo OH 410 8 690 35:09 11:20/M
11 Claire Bohland Oregon OH 203 7 729 36:43 11:51/M
12 Emma Kalmbach Oregon OH 1070 9 731 36:44 11:51/M
13 Olivia Pfeiffer Toledo OH 462 9 738 37:04 11:57/M
14 Shealyn Nestor Northwood 638 8 766 38:06 12:17/M
15 Samantha Burek Perrysburg OH 932 8 778 38:43 12:29/M
16 Elizabeth Kinn Oregon OH 575 6 859 42:10 13:36/M
17 Cadence Vriezelaar Oregon OH 209 8 870 42:28 13:42/M
18 Alexis Batch Oregon OH 187 8 875 42:35 13:44/M
19 Danya Abdulhak Oregon OH 186 8 880 43:04 13:54/M
20 Jenna Pawlaczyk Oregon OH 207 8 904 46:04 14:52/M
21 Sheridan Johnson Oregon OH 179 9 908 46:15 14:55/M
22 Rebekah Davenport Walbride 478 4 937 47:53 15:27/M
23 Drew Kachmarik Perrysburg OH 875 8 952 49:42 16:02/M
24 Jimmie Earl Oregon OH 929 9 995 54:46 17:40/M
25 Mary Candace Blausey Northwood OH 482 8 1018 1:05:51 21:15/M
Top


Male 10 to 14




Total
Place Name City Bib No Age Overall Time Pace
1 Zeke Gau Perrysburg OH 317 14 12 18:33 5:59/M
2 Thomas Urbina Walbridge OH 794 13 16 19:10 6:11/M
3 Gavin Lammers Bowling Green OH 6 12 30 20:15 6:32/M
4 Alex Skitowski Curtice OH 24 13 47 20:57 6:45/M
5 Ben Schwan Lyons 799 13 61 21:46 7:01/M
6 Evan Hoeft Martin OH 83 11 68 22:01 7:06/M
7 Tyler Dokurno Oregon OH 238 13 70 22:08 7:08/M
8 Ben Thomas Monclova 795 13 111 23:17 7:31/M
9 Conner Lagrange Clay Center 12 13 115 23:21 7:32/M
10 Andrew St Julian Oregon OH 273 14 121 23:36 7:37/M
11 Jacob Niedzwiecki Toledo OH 695 12 126 23:48 7:41/M
12 Ethan Davis Woodville 964 14 136 23:56 7:43/M
13 Luke Roach Oregon OH 775 14 140 23:58 7:44/M
14 Lucas Pease Luckey OH 912 13 168 24:31 7:55/M
15 Cameron Overmyer Elmore OH 891 12 173 24:35 7:56/M
16 Tyson Lesher Genoa 43 12 208 25:18 8:10/M
17 Kalib Ruch Northwood OH 136 13 227 25:47 8:19/M
18 Nathan Dimalanta Medina 808 12 248 26:10 8:26/M
19 Antonio Garcia Oregon OH 786 13 249 26:10 8:26/M
20 Nik Lesle-Pilner Toledo OH 697 12 260 26:23 8:31/M
21 Brandon Gomez Northwood OH 142 10 264 26:28 8:32/M
22 Garrett St. John Oregon OH 797 11 285 26:46 8:38/M
23 Luke Kolinski Oregon OH 250 12 297 27:04 8:44/M
24 Logan Dykema Oregon OH 262 10 301 27:09 8:45/M
25 Timmy Mathews Millbury OH 106 13 322 27:30 8:52/M
26 Evan Thompson Oregon OH 1004 11 329 27:37 8:55/M
27 Wyatt Griswold Ottawa Lake MI 282 14 351 27:56 9:01/M
28 Alex Rife Oregon OH 802 11 352 27:57 9:01/M
29 Aaron Wilhelm Oregon OH 251 13 360 28:04 9:03/M
30 Joey Skitowski Curtice OH 27 11 362 28:05 9:04/M
31 Nathan Cici Northwood 809 12 375 28:16 9:07/M
32 Max Closson Northwood OH 133 11 376 28:16 9:07/M
33 Jacob Cici Northwood OH 703 10 384 28:21 9:09/M
34 Sam Thomas Monclova OH 768 14 390 28:25 9:10/M
35 Kaden Rife Oregon OH 801 10 400 28:31 9:12/M
36 Gabe Humbert Three Rivers MI 379 13 407 28:39 9:15/M
37 Dom Chrysochoos Toledo OH 419 14 423 28:54 9:19/M
38 Aj Swan Findlay OH 796 11 430 29:00 9:21/M
39 Jacob Mosiniak Curtice OH 803 14 435 29:07 9:24/M
40 Donovan Cochrane Luckey OH 74 12 446 29:22 9:28/M
41 Brayden Duwve Oregon OH 702 11 490 30:24 9:48/M
42 Chris Gurney Northwood 805 10 506 30:55 9:58/M
43 Corbin Garnsey Oregon OH 700 10 572 32:11 10:23/M
44 Sean Kovacs Northwood OH 134 11 584 32:26 10:28/M
45 Jacob Zilles Perrysburg OH 689 11 598 32:45 10:34/M
46 Isaac Hoffer Northwood OH 1013 12 612 33:09 10:42/M
47 Lukas Lieske Oak Harbor OH 150 10 640 33:49 10:55/M
48 Noah Humbert Three Rivers MI 378 12 666 34:34 11:09/M
49 Eli O'Connor Northwood OH 135 12 685 34:58 11:17/M
50 Seth Witt Martin 761 11 704 35:39 11:30/M
51 Jimmy Zhemin Holland 979 14 710 36:00 11:37/M
52 Skyler Nestor Northwood OH 728 11 711 36:01 11:37/M
53 Alex Yakumithis Toledo OH 760 13 717 36:11 11:40/M
54 Brian Flahie Holt MI 806 10 748 37:16 12:01/M
55 Ricky Jurski Oregon OH 248 11 783 38:58 12:34/M
56 Jimmy McKendrick Edinboro 31 12 799 39:47 12:50/M
57 Nicholas Genzman Northwood OH 140 10 833 40:55 13:12/M
58 Nate Brasic Fremont 899 10 851 41:38 13:26/M
59 Ben Cogar Falls Church VA 957 10 888 44:15 14:16/M
60 Milo Slye Perrysburg OH 693 11 923 46:38 15:03/M
61 Kaden Wilson Griffith IN 1019 11 1010 57:01 18:24/M
Top


Female 10 to 14




Total
Place Name City Bib No Age Overall Time Pace
1 Trinity Fowler Northwood OH 474 14 19 19:14 6:12/M
2 Aubrey Duhaime Perrysburg MI 477 11 71 22:10 7:09/M
3 Alaina Lesniewicz Oregon OH 198 14 99 22:57 7:24/M
4 Tegan Wietrzykowski Toledo OH 613 12 108 23:12 7:29/M
5 Madelynne Hilt Gibsonburg 653 13 122 23:36 7:37/M
6 Emily Porter Toledo OH 633 10 153 24:16 7:50/M
7 Emma Pfeiffer Toledo OH 463 11 200 25:12 8:08/M
8 Payton Donelly Curtice 927 11 209 25:18 8:10/M
9 Jaylynn Lewis Curtice OH 17 11 217 25:24 8:12/M
10 Brooke Dressel Whitehouse OH 878 14 241 26:01 8:24/M
11 Maddie Dykema Oregon OH 190 13 267 26:31 8:33/M
12 Brooklyn Marlowe Northwood OH 468 10 289 26:52 8:40/M
13 Leah Steck Toledo OH 455 11 298 27:05 8:44/M
14 Regan Grant Northwood OH 472 11 331 27:37 8:55/M
15 Melisa Slye Perrysburg OH 625 14 339 27:46 8:57/M
16 Gracie Klatt Oregon OH 879 14 370 28:12 9:06/M
17 Olivia Cox Northwood OH 122 11 373 28:13 9:06/M
18 Alexis McCcormick Lyons OH 563 14 394 28:27 9:11/M
19 Jenna Bal Toledo OH 668 13 416 28:46 9:17/M
20 Abigail Kolinski Oregon OH 197 14 420 28:50 9:18/M
21 Ashlyn Weirich Oregon 614 14 448 29:25 9:29/M
22 Hailey Carey Northwood OH 120 10 463 29:38 9:34/M
23 Emily Carey Northwood OH 121 10 470 29:43 9:35/M
24 Caitlin Heinze Toledo OH 400 12 502 30:48 9:56/M
25 Lana Wells Oregon OH 523 14 522 31:10 10:03/M
26 Emilee Perkins Northwood OH 494 12 578 32:19 10:25/M
27 Ayshan Perkins Northwood OH 1003 11 579 32:20 10:26/M
28 Macey Przybylski Oregon OH 181 10 583 32:26 10:28/M
29 Dannae Cone Northwood OH 124 11 590 32:32 10:30/M
30 Emily Lipper Oregon OH 199 10 594 32:39 10:32/M
31 Olivia West Graytown 49 13 607 32:58 10:38/M
32 Brianna Didion Northwood OH 659 10 617 33:17 10:44/M
33 Ashley Rohrs Perrysburg OH 542 13 618 33:21 10:45/M
34 Natalie Martin Manassas MI 565 13 647 34:00 10:58/M
35 Emma Gall Toledo OH 974 13 655 34:09 11:01/M
36 Erin Reed Toledo OH 411 11 740 37:05 11:58/M
37 Meah Przybylski Oregon OH 182 11 770 38:21 12:22/M
38 Amelia Lewin Northwood OH 469 10 776 38:41 12:29/M
39 Morgan Hayden Toledo OH 470 11 787 39:09 12:38/M
40 Raecie Jones Oregon OH 193 13 790 39:22 12:42/M
41 Rylie Jones Oregon OH 192 10 791 39:23 12:42/M
42 Kaitlyn Applegate Bowling Green OH 670 12 794 39:28 12:44/M
43 Haleigh Ruch Northwood OH 119 11 800 39:48 12:50/M
44 Madison Knopp Oregon OH 204 10 832 40:54 13:12/M
45 Mallorie Mefferd Toledo OH 467 11 846 41:14 13:18/M
46 Kaitlyn Martin Manassas 564 10 901 46:02 14:51/M
47 Grace Alford Dearborn MI 603 11 910 46:22 14:57/M
48 Kaylee Akins Oregon OH 1021 13 928 47:07 15:12/M
49 Grace Peery Oregon OH 176 13 973 52:56 17:05/M
50 Meagan Gartee Holland OH 55 13 1017 1:04:11 20:42/M
Top


Male 15 to 19




Total
Place Name City Bib No Age Overall Time Pace
1 Connor Stowell Morenci MI 770 15 24 19:48 6:23/M
2 Max Schroeder Curtice OH 20 17 26 19:56 6:26/M
3 Logan Barshel Oregon OH 222 16 36 20:29 6:36/M
4 Zach Applegate Bowling Green OH 810 15 37 20:29 6:36/M
5 Thomas Hilt Gibsonburg 738 15 40 20:42 6:41/M
6 Nathaniel Alford Dearborn MI 792 15 43 20:46 6:42/M
7 Sean Hoeft Martin OH 82 15 49 21:00 6:46/M
8 Tyler Szychowski Toledo OH 970 19 59 21:37 6:58/M
9 Dylan Berg Oregon OH 755 19 60 21:46 7:01/M
10 Andrew Titgemeyer Curtice OH 1016 15 62 21:47 7:02/M
11 Nicholas Lasola Toledo OH 889 15 65 21:58 7:05/M
12 Robert Chung Curtice OH 1058 18 92 22:41 7:19/M
13 Michael Chung Curtice OH 1059 19 93 22:42 7:19/M
14 Reagan Stowell Morenci MI 771 19 105 23:06 7:27/M
15 Clint Huntermark Perrysburg OH 315 16 118 23:33 7:36/M
16 Andy Burmeister Pemberville OH 284 19 139 23:58 7:44/M
17 Ian Heldt Toledo OH 784 15 147 24:10 7:48/M
18 Garret McCoy Sylvania OH 361 17 150 24:14 7:49/M
19 Andrew Sterling Oregon OH 247 18 154 24:17 7:50/M
20 Austin Wilson Medina 930 19 157 24:21 7:51/M
21 Jacob Keilholz Oregon OH 234 16 158 24:21 7:51/M
22 Jacob Leader Bowling Green OH 3 19 159 24:22 7:52/M
23 Erik Pease Luckey OH 913 15 170 24:33 7:55/M
24 Danny Walton Perrysburg OH 967 15 180 24:44 7:59/M
25 Connor Davis Woodville 963 16 203 25:14 8:08/M
26 Zachary Lehman-Ludwig New York NY 951 19 216 25:22 8:11/M
27 Jr Wallace Woodville OH 767 17 222 25:31 8:14/M
28 Zak Sherman Northwood OH 798 15 252 26:14 8:28/M
29 Ben Keilholz Oregon OH 233 19 300 27:09 8:45/M
30 Todd Newmister Genoa OH 44 18 327 27:34 8:54/M
31 John Spence Swanton 353 19 355 28:01 9:02/M
32 Ajay Riechman Oak Harbor OH 151 15 403 28:35 9:13/M
33 Noah Robbins Holland OH 61 15 411 28:45 9:16/M
34 Tony Zhou Holland 978 18 436 29:09 9:24/M
35 Jared Lutz Oregon OH 245 19 449 29:26 9:30/M
36 Zach Pease Luckey OH 911 17 549 31:48 10:15/M
37 Jeep Mazzic Toledo OH 432 16 552 31:50 10:16/M
38 Jaekob Sader Bowling Green OH 821 16 567 32:08 10:22/M
39 Jacob Wolfe Toledo OH 424 16 569 32:08 10:22/M
40 Michael McKendrick Maumee OH 95 15 608 32:59 10:38/M
41 Nick Wismer Perrysburg OH 763 18 649 34:03 10:59/M
42 Mark Schachte Cary 820 18 782 38:54 12:33/M
43 Alexis Aguilar Northwood 793 16 949 49:30 15:58/M
44 Marc Jaksetic Toledo OH 855 16 988 53:49 17:22/M
45 Kaiden Day Perrysburg OH 313 18 997 55:32 17:55/M
Top


Female 15 to 19




Total
Place Name City Bib No Age Overall Time Pace
1 Natalie Applegate Bowling Green OH 671 16 75 22:17 7:11/M
2 Maggie Cochrane Luckey OH 72 15 96 22:50 7:22/M
3 Meradith Wisniewski Oregon OH 610 15 127 23:49 7:41/M
4 Brittany Mathews Millbury 102 16 135 23:56 7:43/M
5 Kristen Cook Haskins MI 937 18 144 24:03 7:45/M
6 Hannah Robbins Holland OH 56 18 151 24:15 7:49/M
7 Sarah Schwan Lyons 627 15 174 24:36 7:56/M
8 Jessalyn Bohland Oregon OH 189 18 189 24:57 8:03/M
9 Molly Walton Perrysburg OH 966 18 192 25:00 8:04/M
10 Emily Spackey Perrysburg OH 456 15 245 26:07 8:25/M
11 Leeza Bowers Northwood OH 481 18 255 26:18 8:29/M
12 Tayler Royal Rossford OH 339 18 268 26:32 8:34/M
13 Theresa M Koszycki Toledo OH 955 19 324 27:31 8:53/M
14 Normandie Berl Oregon OH 1034 15 346 27:51 8:59/M
15 Molly Dresser Martin 79 15 361 28:04 9:03/M
16 Samanatha Maze Oregon OH 200 19 372 28:13 9:06/M
17 Molly Burkett Gibsonburg OH 47 19 374 28:14 9:06/M
18 Sara Dresser Martin 76 17 387 28:23 9:09/M
19 Alexis Heldt Sylvania OH 584 19 401 28:32 9:12/M
20 Abby Heldt Rockwood MI 655 18 404 28:37 9:14/M
21 Kelly Knauss Temperance MI 372 19 445 29:22 9:28/M
22 Lilly Meier Oregon OH 1076 17 469 29:43 9:35/M
23 Audrey Ahrendt Toledo OH 414 17 488 30:23 9:48/M
24 Madeline Duwve Oregon OH 476 18 489 30:24 9:48/M
25 Danielle Lorenzen Oregon OH 567 19 509 31:03 10:01/M
26 Ashlee Simpkins Toledo OH 626 19 536 31:23 10:07/M
27 Kelsey O'Brien Sylvania OH 635 19 540 31:29 10:09/M
28 Natalie Davis Woodville 962 18 581 32:23 10:27/M
29 Brooke Servick Maumee OH 87 18 610 33:00 10:39/M
30 Hannah Perna Perrysburg OH 634 19 650 34:03 10:59/M
31 Annie Lehman-Ludwig New York NY 949 17 672 34:43 11:12/M
32 Eireann Garcia Toledo OH 588 18 701 35:36 11:29/M
33 Lexi Servick Maumee OH 88 15 713 36:02 11:37/M
34 Abbi Riechman Oak Harbor OH 147 19 737 37:02 11:57/M
35 Emily Hook Oregon OH 989 19 759 37:32 12:06/M
36 Maegan Dokurno Oregon OH 170 16 772 38:27 12:24/M
37 Lilly Kaplan Sylvania OH 950 18 848 41:30 13:23/M
38 Claire Ulrich Toledo OH 1039 16 849 41:32 13:24/M
39 Emma Sharpe Hilliard 52 17 920 46:36 15:02/M
40 Marissa Cain Charlotte 9 18 921 46:38 15:03/M
41 Jillian Cain Charlotte 10 15 922 46:38 15:03/M
42 Breanne Gartee Holland OH 54 16 925 46:45 15:05/M
43 Aubrey Gall Toledo OH 975 15 932 47:44 15:24/M
44 Emilia Ruiz Toledo OH 392 16 950 49:31 15:58/M
45 Callie Brandt Curtice 665 19 967 52:38 16:59/M
46 Tatum Peery Oregon OH 163 15 972 52:55 17:04/M
47 Brooke Gault Whitehouse OH 449 16 978 53:17 17:11/M
48 Destiny Kignt Toledo OH 997 16 979 53:17 17:11/M
49 Kayley Kimball Toledo OH 388 16 983 53:29 17:15/M
50 Kaitlyn Graczyk Toledo OH 386 16 984 53:29 17:15/M
51 Emma Hansen Toledo OH 941 17 987 53:48 17:21/M
52 Sydney Sauerwein Oregon OH 987 17 1008 56:41 18:17/M
53 Alexa Sheahan Curtice OH 15 17 1009 56:43 18:18/M
Top


Male 20 to 24




Total
Place Name City Bib No Age Overall Time Pace
1 Matt Leis Toledo OH 430 21 3 15:44 5:05/M
2 Patrick Ferguson Perrysburg OH 904 20 4 17:04 5:30/M
3 Christopher Housel Milftown MI 100 21 6 17:21 5:36/M
4 John Gibbons Oregon OH 241 23 66 21:59 7:05/M
5 Erick Danyi Oregon OH 787 23 67 21:59 7:05/M
6 Daniel Giffin Toledo OH 1066 22 73 22:13 7:10/M
7 Andrew Cechner Sylvania OH 986 21 85 22:36 7:17/M
8 Cody Wisniewski Oregon OH 762 21 129 23:50 7:41/M
9 Jay Smith Oregon OH 898 20 155 24:18 7:50/M
10 Stanley Gladieux Oregon OH 227 21 207 25:17 8:09/M
11 Kyle Schaefer Toledo OH 1037 24 237 25:57 8:22/M
12 Kodi Brown Ontario 751 22 254 26:17 8:29/M
13 Alex Bohland Oregon OH 225 22 257 26:19 8:29/M
14 Alec Hillyer Waterville 781 24 277 26:37 8:35/M
15 Patrick McCoy Sylvania OH 363 20 311 27:17 8:48/M
16 Peter Schachte Cary 719 21 459 29:34 9:32/M
17 Michael Verroco Perrysburg OH 916 22 464 29:40 9:34/M
18 Joshua Kemp Perrysburg OH 319 21 515 31:05 10:02/M
19 Evan Karchner Maumee OH 99 21 519 31:07 10:02/M
20 Landon Okey Oregon OH 246 24 560 32:02 10:20/M
21 Joe Esposito Toledo OH 902 24 624 33:25 10:47/M
22 Michael Barlos Maumee OH 94 24 695 35:23 11:25/M
23 Hunter Rupp Sylvania OH 823 24 702 35:38 11:30/M
24 Jakob Bohland Oregon OH 224 20 730 36:44 11:51/M
25 Jonathan Labuhn Oregon OH 733 24 810 39:57 12:53/M
26 Travis Houpt Dundee MI 834 22 823 40:31 13:04/M
27 Matt Lorenzen Oregon OH 219 24 864 42:19 13:39/M
28 Matt Pfouts Curtice OH 28 22 874 42:32 13:43/M
Top


Female 20 to 24




Total
Place Name City Bib No Age Overall Time Pace
1 Hannah Romstadt Fairborn 630 24 138 23:57 7:44/M
2 Shelby Schuster Sylvania OH 354 24 201 25:14 8:08/M
3 Abby Byers Waterville OH 662 24 202 25:14 8:08/M
4 Amelia Marsh Haslett MI 50 23 205 25:15 8:09/M
5 Alaina Haubert Elmore 887 24 223 25:39 8:16/M
6 Carly Damman Columbus OH 660 23 230 25:49 8:20/M
7 Kelly Schaefer Oregon OH 538 21 239 25:58 8:23/M
8 Harley Vaught Oregon OH 278 22 256 26:19 8:29/M
9 Christina Schultz Toledo OH 867 24 273 26:33 8:34/M
10 Amanda Schuster Sylvania OH 537 24 282 26:42 8:37/M
11 Jessica Turner Perrysburg OH 292 21 334 27:40 8:55/M
12 Allie Dresser Martin 77 20 386 28:23 9:09/M
13 Nicole Romstadt Oregon OH 457 24 427 28:58 9:21/M
14 Jordan Pfouts Northwood OH 125 24 452 29:27 9:30/M
15 Carrie Esposito Toledo OH 903 23 498 30:40 9:54/M
16 Emily Leese Oregon OH 175 23 500 30:46 9:55/M
17 Sarah Lorenzen Oregon OH 206 24 510 31:03 10:01/M
18 Brianna Murnan Perrysburg OH 296 21 514 31:05 10:02/M
19 Breann Majors Oak Harbor 566 24 529 31:17 10:05/M
20 Angie Clay Toledo OH 399 20 531 31:22 10:07/M
21 Brooke Batler Toledo OH 1078 23 532 31:22 10:07/M
22 Emma Morgan Columbus OH 558 24 554 31:54 10:17/M
23 Mallorie Sutter Waterville OH 532 23 565 32:06 10:21/M
24 Nickiti Koszycki Toledo OH 953 21 574 32:14 10:24/M
25 Allie Reynolds Oak Harbor OH 146 22 609 32:59 10:38/M
26 Bridget Harrington Louisville 471 24 632 33:35 10:50/M
27 Kristin Trumbull Oregon OH 488 24 669 34:41 11:11/M
28 Kelsey Platek Sylvania OH 1001 20 670 34:42 11:12/M
29 Morgan Judy Walbridge 579 23 671 34:43 11:12/M
30 Katy Platek Sylvania OH 1000 22 673 34:44 11:12/M
31 Kalee McElmurry Columbus OH 561 21 688 35:06 11:19/M
32 Micaela Slye Medina OH 931 21 689 35:08 11:20/M
33 Anne Rodriguez Toledo OH 391 22 698 35:29 11:27/M
34 Kasey O'Shea Curtice OH 909 20 714 36:05 11:38/M
35 Shelby Knauss Temperance MI 367 23 732 36:44 11:51/M
36 Lauren Knauss Temperance MI 369 20 733 36:45 11:51/M
37 Lindsay Hilt Toledo OH 581 24 743 37:09 11:59/M
38 Jennifer Trumbull Oregon 529 20 762 37:48 12:12/M
39 Angela Broshious Oregon OH 168 22 796 39:33 12:45/M
40 Tori Peitz Petersburg MI 333 23 815 40:08 12:57/M
41 Lena Miller Oregon OH 943 23 816 40:08 12:57/M
42 Kaitlyn Sheahan Curtice OH 16 20 831 40:49 13:10/M
43 Emily Hemminger Curtice 583 22 844 41:09 13:16/M
44 Natalie Dech Toledo OH 384 20 866 42:20 13:39/M
45 Brooke Knauss Temperance MI 371 20 890 44:48 14:27/M
46 Susan Lind Oregon OH 499 24 982 53:28 17:15/M
47 Karleigh Newmister Genoa OH 40 21 1003 56:15 18:09/M
Top


Male 25 to 29




Total
Place Name City Bib No Age Overall Time Pace
1 Eric Weis Oregon OH 706 25 20 19:32 6:18/M
2 Andrew Heldt Sharonville 783 26 41 20:44 6:41/M
3 Max Morrissey Oregon OH 275 27 50 21:02 6:47/M
4 Garrett Hoanir Elon NC 1032 26 53 21:27 6:55/M
5 Ryan Kersey Oregon OH 272 29 74 22:14 7:10/M
6 Sam Magoy Columbus OH 1074 25 83 22:33 7:16/M
7 Tyler Brunsman New York NY 111 26 91 22:41 7:19/M
8 Ross Kersey Rochester MI 338 27 156 24:20 7:51/M
9 Tyler Boris Oregon OH 848 27 161 24:23 7:52/M
10 Albert Dominguez Toledo OH 1038 26 214 25:21 8:11/M
11 Brent Allan Toledo OH 758 28 215 25:21 8:11/M
12 Jim Baumgartner Tallmadge OH 366 26 228 25:47 8:19/M
13 Daniel Kramer Perrysburg OH 831 26 229 25:49 8:20/M
14 Ryan Leone Toledo OH 431 28 284 26:46 8:38/M
15 Trent Dorner Perrysburg OH 316 27 399 28:31 9:12/M
16 Joseph Jablonski Monroe MI 856 27 414 28:45 9:16/M
17 Brandon Alley Norwalk 850 28 432 29:03 9:22/M
18 Michael Garcia Walbridge OH 744 28 455 29:30 9:31/M
19 Bob Cousino Oregon OH 973 25 486 30:18 9:46/M
20 Bryan Gerber Bowling Green OH 5 29 507 30:57 9:59/M
21 Zach Esposito Rossford OH 998 25 625 33:26 10:47/M
22 Jason Knotts Toledo OH 832 29 633 33:40 10:52/M
23 Eric Rutkowski Toledo OH 822 26 662 34:19 11:04/M
24 Ryan Antonacci Toledo OH 861 27 674 34:46 11:13/M
25 Albert Hilt Toledo OH 837 27 675 34:46 11:13/M
26 Cameron Klaege Toledo OH 833 25 677 34:47 11:13/M
27 Justin Hemminger Curtice OH 1052 26 765 37:52 12:13/M
28 Ryan Munch Northwood OH 131 27 793 39:24 12:43/M
29 Chad Hall Oregon OH 218 27 879 42:46 13:48/M
30 Jordan Kachmarik Perrysburg OH 893 29 953 49:43 16:02/M
Top


Female 25 to 29




Total
Place Name City Bib No Age Overall Time Pace
1 Maria Leone Toledo OH 401 29 80 22:26 7:14/M
2 Cory Arbinager Toledo OH 1028 28 81 22:27 7:15/M
3 Staci Pickerel Ontario 461 29 106 23:09 7:28/M
4 Priya Waggoner Maumee OH 866 26 152 24:16 7:50/M
5 Amanda Warnke Perrysburg OH 300 27 183 24:50 8:01/M
6 Kitty Shaw Sylvania OH 355 27 184 24:52 8:01/M
7 Nicole Kamann Dayton OH 1027 27 279 26:38 8:35/M
8 Lindsay Ross Perrysburg OH 298 26 302 27:10 8:46/M
9 Samantha Periaky Oregon OH 1009 28 309 27:16 8:48/M
10 Amanda Plewa-Moeller Lakewood OH 1062 28 326 27:31 8:53/M
11 Amanda Bergman Genoa OH 1046 27 337 27:45 8:57/M
12 Jovanna Harris-Johnson Toledo OH 905 28 383 28:19 9:08/M
13 Amanda Jablonski Temperance MI 580 29 419 28:49 9:18/M
14 Kimberly Paris Toledo OH 402 29 429 29:00 9:21/M
15 Carly Meier Columbus OH 1075 26 433 29:05 9:23/M
16 Emily Baumgartner Tallmadge OH 365 25 450 29:27 9:30/M
17 Marta Trendell Bellbrook OH 530 27 456 29:32 9:32/M
18 Amy Lind Oregon OH 641 27 457 29:32 9:32/M
19 Jessica Kersey Oregon OH 217 27 474 29:44 9:35/M
20 Kelsey Depompei Columbus OH 901 28 480 30:01 9:41/M
21 Lauren Verroco Walbridge OH 615 25 492 30:27 9:49/M
22 Kendall Karchner Maumee OH 90 27 516 31:06 10:02/M
23 Lindsay Barts Dayton OH 29 29 575 32:14 10:24/M
24 Angela Jordan Temperance MI 370 26 623 33:25 10:47/M
25 Kelcie Hook Oregon OH 991 25 634 33:41 10:52/M
26 Alyssa Tipping Perrysburg 616 26 659 34:16 11:03/M
27 Brittney Stribrny Oregon OH 1033 25 667 34:41 11:11/M
28 Kaitlynn Klaege Toledo OH 646 26 681 34:54 11:15/M
29 Danielle Gaines Elmore 888 29 722 36:21 11:44/M
30 Julianne Schumaker Martin OH 81 27 728 36:43 11:51/M
31 Danielle Labuhn Oregon OH 572 27 749 37:17 12:02/M
32 Brittany Rutkowski Toledo OH 540 26 784 38:59 12:35/M
33 Mary Kelly Northwood OH 115 26 792 39:23 12:42/M
34 Michaela Yap Perrysburg OH 301 25 805 39:53 12:52/M
35 Susie Mazur Chicago IL 497 29 811 40:04 12:55/M
36 Rachel Caputo Toledo OH 479 27 841 41:01 13:14/M
37 Doreen Bustamante Curtice OH 18 27 842 41:02 13:14/M
38 Madalyn Knotts Toledo OH 501 28 885 43:56 14:10/M
39 Brittany Knauss Temperance MI 368 26 891 44:48 14:27/M
40 Erin Davenport Walbridge OH 685 27 936 47:52 15:26/M
41 Alison Nelson Bowling Green OH 922 25 942 48:33 15:40/M
42 Jaime Zbierajewski Oregon OH 518 28 960 50:26 16:16/M
43 Ashley Broshious Oregon OH 202 29 1000 55:51 18:01/M
44 Chelsea Ankenbrandt Oregon OH 673 25 1015 59:38 19:14/M
45 Katie Hyden Toledo OH 505 25 1016 59:40 19:15/M
Top


Male 30 to 34




Total
Place Name City Bib No Age Overall Time Pace
1 Brad Miller Maumee OH 96 33 7 17:23 5:36/M
2 Justin Riffle Millbury OH 800 33 9 17:34 5:40/M
3 James Gaul Westerville OH 785 34 11 18:25 5:56/M
4 Sean Newmister Pinckney MI 336 30 18 19:14 6:12/M
5 Derek Gerber Blacklick OH 1 31 27 19:59 6:27/M
6 Neil Flanner Toledo OH 1061 30 28 20:05 6:29/M
7 Derek Martzke Genoa OH 731 33 34 20:23 6:35/M
8 Daniel Taylor Elgin 769 34 55 21:29 6:56/M
9 Matthew Molnar Oregon OH 276 31 58 21:34 6:57/M
10 Ernest C. Sampson III Rossford OH 348 32 77 22:23 7:13/M
11 Lee Sechrist Lakewood OH 66 33 134 23:56 7:43/M
12 Brad Wignall Perrysburg OH 326 34 142 23:59 7:44/M
13 Marcos Gomez Perrysburg OH 325 33 263 26:27 8:32/M
14 Casey Gibson Toledo OH 743 31 410 28:43 9:16/M
15 Matthew Stvartak Columbus OH 712 30 454 29:30 9:31/M
16 Chris Anteau Temperance MI 375 34 467 29:42 9:35/M
17 Adam Gross Oregon OH 924 30 487 30:20 9:47/M
18 Elliot Willis Toledo OH 933 34 493 30:27 9:49/M
19 Mike Newmister Toledo OH 438 33 528 31:16 10:05/M
20 Alan Kotafrasz Toledo OH 1077 32 533 31:22 10:07/M
21 Shane Munch Northwood OH 139 32 597 32:45 10:34/M
22 Matthew Lohberger Walbridge OH 732 33 604 32:55 10:37/M
23 Matthew Scheidt Perrysburg OH 321 33 663 34:19 11:04/M
24 Daniel Redford Luna Pier MI 724 33 700 35:34 11:28/M
25 Jeff Lincoln Northwood OH 143 31 706 35:42 11:31/M
26 Nathan Hall Perrysburg OH 318 31 721 36:20 11:43/M
27 John Frye Northwood 858 33 777 38:41 12:29/M
28 Adam Buckner Oregon OH 1031 33 813 40:06 12:56/M
29 Robert Davenport II Walbridge 859 30 938 47:54 15:27/M
30 Kevin Taylor Oregon OH 711 31 959 50:25 16:16/M
31 Timothy Ybarra Toledo OH 425 31 961 50:55 16:25/M
Top


Female 30 to 34




Total
Place Name City Bib No Age Overall Time Pace
1 Julie Riffle Millbury OH 459 34 25 19:49 6:24/M
2 Megan Marczak Columbus OH 640 30 56 21:29 6:56/M
3 Sarah Bradley Perrysburg OH 304 31 103 23:05 7:27/M
4 Jennifer Brown Rossford MI 1068 33 162 24:24 7:52/M
5 Cynthia Wignall Perrysburg OH 307 32 186 24:54 8:02/M
6 Leslie Johnson Toledo OH 972 33 219 25:26 8:12/M
7 Holly Schultz Perrysburg OH 628 31 269 26:32 8:34/M
8 Carolyn Berryman Oregon OH 596 31 274 26:33 8:34/M
9 Toni Kreager Perrysburg OH 305 30 275 26:34 8:34/M
10 Emily Zmarzly Perrysburg OH 605 31 294 27:01 8:43/M
11 Michelle Lemon Oregon OH 642 33 313 27:21 8:49/M
12 Katie Ford Woodville 452 32 338 27:45 8:57/M
13 Bobbie Krytus Oregon 644 33 371 28:13 9:06/M
14 Danielle Addison Oregon OH 674 33 393 28:26 9:10/M
15 Jennifer Blair Georgetown IN 667 31 409 28:43 9:16/M
16 Alissa Stvartak Columbus 620 30 421 28:51 9:18/M
17 Sarah Romano Oregon OH 214 33 422 28:52 9:19/M
18 Abby Burns Perrysburg OH 880 34 439 29:14 9:26/M
19 Colleen Minnemeyer Spencer 559 30 453 29:28 9:30/M
20 Bethany Lopez Walbridge 965 33 460 29:34 9:32/M
21 Kate Foxbower Terrace Park 589 33 465 29:41 9:35/M
22 Samanatha Hall Perrysburg OH 295 30 478 29:53 9:38/M
23 Jordan Apfer Woodville OH 1069 30 483 30:14 9:45/M
24 Danielle Bell Oregon OH 167 34 494 30:27 9:49/M
25 Tara Sulewski Arlington 619 30 497 30:37 9:53/M
26 Heather Haynes Pemberville 283 30 508 30:57 9:59/M
27 Emily Burcin Genoa 37 31 511 31:04 10:01/M
28 Evangeline Taylor Elgin 618 33 513 31:04 10:01/M
29 Jennifer Klewer Perrysburg OH 574 33 527 31:15 10:05/M
30 Lisa Stricker Maineville 622 34 558 32:00 10:19/M
31 Joy Wagener Bowling Green OH 527 30 566 32:07 10:22/M
32 Michelle Kersey Rochester MI 337 34 576 32:14 10:24/M
33 Jessica Faber Toledo OH 590 32 614 33:12 10:43/M
34 Kelly Plath Toledo OH 549 32 616 33:15 10:44/M
35 Kristin Cordy Elmore 593 34 653 34:07 11:00/M
36 Jodi Harding Maumee OH 688 32 660 34:17 11:04/M
37 Carrie Baker Fort Wayne 514 32 686 35:02 11:18/M
38 Sarah Hilt Chicago 11 34 703 35:38 11:30/M
39 Katherine Yenrick Medford OH 485 30 708 35:52 11:34/M
40 Meranda Kinn Oregon OH 576 33 715 36:09 11:40/M
41 Desiree Bustamante Curtice OH 19 30 718 36:11 11:40/M
42 Andrea Guerra Toledo OH 971 30 741 37:08 11:59/M
43 Elizabeth Brewster Graytown 511 33 747 37:16 12:01/M
44 Jennifer Allen Oregon OH 215 34 752 37:22 12:03/M
45 Julie Moore Oregon OH 466 34 769 38:17 12:21/M
46 Amy Walter Perrysburg OH 890 34 808 39:54 12:52/M
47 Brandi Redford Luna Pier 545 31 822 40:30 13:04/M
48 Kathryn Plath Toledo OH 550 33 824 40:35 13:05/M
49 Sara Oberhaus Oregon OH 180 34 837 40:55 13:12/M
50 Shannob Jurca Perrysburg OH 908 32 852 41:39 13:26/M
51 Elizabeth Bergman Genoa OH 1045 31 861 42:17 13:38/M
52 Pamela Schultz Delta 454 31 893 45:12 14:35/M
53 Sarah Pawlaczyk Oregon OH 161 30 902 46:03 14:51/M
54 Melissa Lincoln Northwood OH 123 31 912 46:23 14:58/M
55 Heather Poddany Oregon OH 897 33 935 47:46 15:25/M
56 Amber Lewis Tiffin OH 923 31 941 48:33 15:40/M
57 Sarah Barcin Maumee OH 1029 33 963 51:56 16:45/M
58 Victoria Bruce Gibsonburg 510 33 968 52:43 17:00/M
59 Andrea Hughes Fremont OH 885 32 975 53:06 17:08/M
60 Jonelle Gross Oregon OH 191 30 989 54:06 17:27/M
61 Kori Newmister Toledo OH 407 30 1001 55:57 18:03/M
62 Sarah Newmister Pinckney MI 335 33 1002 56:13 18:08/M
63 Catherine Alley Norwalk 516 30 1011 57:08 18:26/M
64 Shaquaya Justice Toledo OH 503 30 1012 57:21 18:30/M
Top


Male 35 to 39




Total
Place Name City Bib No Age Overall Time Pace
1 Jason Kessler Perrysburg OH 1007 35 2 15:00 4:50/M
2 Dustin Lamvermeyer Tiffin OH 992 39 5 17:16 5:34/M
3 Michael Porter Toledo OH 853 39 29 20:08 6:30/M
4 Matt Carpenter Hudson MI 788 38 32 20:20 6:34/M
5 Jason Ruch Northwood OH 132 38 33 20:22 6:34/M
6 Jonathon Burns Perrysburg OH 881 35 35 20:26 6:35/M
7 Jason Bomyea Northwood OH 137 39 45 20:53 6:44/M
8 Phil Schwan Lyons 773 38 54 21:28 6:55/M
9 Mark Foxbower Terrace Park 840 39 79 22:26 7:14/M
10 Patrick Stricker Maineville 713 36 98 22:56 7:24/M
11 Clint Bourgeois Cincinnati OH 791 35 104 23:06 7:27/M
12 Jamie Keil Whitehouse OH 954 39 164 24:25 7:53/M
13 Brent Shimman Oregon OH 772 37 179 24:43 7:58/M
14 Andrew Kilmer Pittsburgh 736 39 187 24:54 8:02/M
15 Brandon Roberts Oregon OH 1072 39 218 25:25 8:12/M
16 Ben Schlatter Perrysburg OH 774 36 251 26:13 8:27/M
17 Kory Munch Northwood OH 128 36 259 26:21 8:30/M
18 Brian Hughes Rossford 886 35 377 28:16 9:07/M
19 Jason Logsdon Commerce Twp MI 827 38 385 28:21 9:09/M
20 Tom Addison Oregon OH 759 37 389 28:25 9:10/M
21 Matthew Niedzwiecki Toledo OH 727 39 424 28:54 9:19/M
22 Ryan Bruce Gibsonburg 846 35 431 29:02 9:22/M
23 Scott Hilt Gibsonburg 739 37 438 29:13 9:25/M
24 Mike Beard Northwood OH 849 35 466 29:42 9:35/M
25 Scott Lacourse Big Rapids MI 830 39 472 29:44 9:35/M
26 Gregory L. Byrne Fremont 34 39 491 30:27 9:49/M
27 Matt Gross Oregon OH 229 37 499 30:45 9:55/M
28 Denny Suber Perrysburg OH 934 35 503 30:48 9:56/M
29 Jared Overmyer Elmore OH 892 39 547 31:43 10:14/M
30 Bryan Rayburn Temperance MI 1022 35 619 33:21 10:45/M
31 Brad O'Connor Northwood OH 126 39 636 33:43 10:53/M
32 Dustin Helbing Toledo OH 907 36 680 34:52 11:15/M
33 Jeremiah Cordy Elmore 843 36 719 36:18 11:43/M
34 Tom Urbina Walbridge 709 38 817 40:09 12:57/M
35 Derick Schnee Curtice OH 22 36 820 40:14 12:59/M
36 Duane Ackley Toledo OH 426 35 829 40:42 13:08/M
37 Joseph Kinn Oregon OH 735 37 858 42:10 13:36/M
38 Scott Batch Oregon OH 223 39 876 42:36 13:45/M
39 Lamar Johnson Oregon OH 231 38 996 54:47 17:40/M
Top


Female 35 to 39




Total
Place Name City Bib No Age Overall Time Pace
1 Chantilly Kessler Perrysburg OH 1006 35 21 19:35 6:19/M
2 Cyndi Henline Perrysburg OH 582 35 69 22:04 7:07/M
3 Lindsay Folk Perrysburg OH 1051 35 86 22:36 7:17/M
4 Elizabeth Cousino Toledo OH 383 37 88 22:37 7:18/M
5 Laura Harp Oak Harbor OH 1005 35 107 23:11 7:29/M
6 Christy Miller Luckey OH 73 37 137 23:57 7:44/M
7 Emily Niedzwiecki Toledo OH 637 37 145 24:06 7:46/M
8 Laura Seiverth Perrysburg OH 306 36 188 24:55 8:02/M
9 Jennifer Applegate Bowling Green OH 672 37 195 25:09 8:07/M
10 Kori Zake Toledo OH 608 38 213 25:21 8:11/M
11 Rebecca Schwan Lyons 536 38 243 26:03 8:24/M
12 Katie Croci Maumee OH 936 37 246 26:08 8:26/M
13 Brandi Stannert Toledo OH 623 39 261 26:24 8:31/M
14 Kristy Spackey Perrysburg OH 624 39 291 26:56 8:41/M
15 Jade Berl Oregon OH 1035 38 299 27:08 8:45/M
16 Sherry Walker Northwood OH 525 37 330 27:37 8:55/M
17 Donna Provolish Toledo OH 547 35 354 28:01 9:02/M
18 Natalie Kristiansen Willits 645 38 366 28:09 9:05/M
19 Stephanie Snyder Oregon OH 535 38 367 28:10 9:05/M
20 Marcie Gfell Sylvania OH 935 39 369 28:11 9:05/M
21 Stephanie Kollm Coraopolis 500 37 391 28:26 9:10/M
22 Karen Walker Lambertville MI 67 39 402 28:34 9:13/M
23 Cindy Zilles Perrysburg OH 606 39 413 28:45 9:16/M
24 Rebecca Heinze Toledo OH 387 39 426 28:55 9:20/M
25 Angie Closson Northwood OH 117 39 461 29:35 9:33/M
26 Abbey Anteau Temperance MI 373 36 462 29:36 9:33/M
27 Lisa Lacourse Big Rapids OH 643 35 471 29:43 9:35/M
28 Julie Steinhardt Perrysburg OH 290 35 473 29:44 9:35/M
29 Roblyn Skibinski Toledo OH 403 38 482 30:12 9:45/M
30 Kristina Rife Oregon OH 543 35 534 31:22 10:07/M
31 Jenny Wietrzykowski Toledo OH 487 37 543 31:34 10:11/M
32 Erin Kamann Millbury OH 578 37 573 32:11 10:23/M
33 Michelle Keller Monclova OH 577 37 588 32:31 10:29/M
34 Angie Enright Toledo OH 1014 35 600 32:48 10:35/M
35 Jill Wood Perrysburg OH 293 39 611 33:05 10:40/M
36 Lori McCloud Lambertville MI 639 36 627 33:30 10:48/M
37 Amanda Zapata Cincinnati OH 607 36 629 33:31 10:49/M
38 Jaime Csehi Oregon OH 1054 36 643 33:51 10:55/M
39 Alison Gladieux Oregon OH 942 37 644 33:53 10:56/M
40 Bre Lieske Oak Harbor OH 145 36 645 33:53 10:56/M
41 Amy Reinmeyer Cumming OH 544 35 657 34:09 11:01/M
42 Jessica Kemp Perrysburg OH 287 36 664 34:19 11:04/M
43 Amanda Barlage Oregon OH 599 39 665 34:20 11:05/M
44 Heather Baker Toledo OH 601 36 687 35:04 11:19/M
45 Erica McElmurry Sylvania OH 562 39 691 35:12 11:21/M
46 Rhonda Rayburn Temperance MI 1023 39 697 35:29 11:27/M
47 Danette Rzeszotarski Erie MI 629 38 707 35:50 11:34/M
48 Heather Meek Holland OH 59 39 723 36:26 11:45/M
49 Jill Burten 1060 39 724 36:28 11:46/M
50 Tracy Augustyniak Sylvania OH 602 38 725 36:31 11:47/M
51 Christa Helbing Toledo OH 906 37 735 36:59 11:56/M
52 Brandy Dempsey Oregon OH 169 35 742 37:08 11:59/M
53 Meghan Reed Toledo OH 390 38 746 37:15 12:01/M
54 Laura Ebright Findlay OH 591 39 755 37:28 12:05/M
55 Tracy Przybylski Oregon OH 177 36 775 38:35 12:27/M
56 Jennifer Roberts Oregon OH 183 39 786 39:01 12:35/M
57 Laura Hayden Toledo OH 585 39 788 39:11 12:38/M
58 Amber Schnee Curtice OH 13 38 819 40:14 12:59/M
59 Karen Wu Perrysburg OH 609 36 826 40:36 13:06/M
60 Charlotte Sowinski Perrysburg OH 288 36 830 40:43 13:08/M
61 Sara Bourgeois Cincinnati OH 666 35 836 40:55 13:12/M
62 Michelle Genzman Northwood OH 118 39 838 40:57 13:13/M
63 Jodie Petcoff Lambertville 553 36 853 41:39 13:26/M
64 Annette Lohberger Genoa OH 568 36 865 42:19 13:39/M
65 Sommer Vriezelaar Oregon OH 185 38 871 42:29 13:42/M
66 Alisa Logsdon Commerce Twp MI 569 37 924 46:43 15:04/M
67 Susanne Ybarra Toledo OH 408 35 962 50:57 16:26/M
68 Lisa Peery Oregon OH 162 39 971 52:54 17:04/M
69 Jacquelyn Bancroft Toledo OH 380 39 998 55:42 17:58/M
Top


Male 40 to 44




Total
Place Name City Bib No Age Overall Time Pace
1 Jeffery Lammers Bowling Green OH 2 40 10 18:14 5:53/M
2 Eric Glinski Perrysburg OH 742 41 17 19:14 6:12/M
3 Patrick Flahie Holt OH 64 40 22 19:41 6:21/M
4 Jeremiah Przybylski Oregon OH 258 40 23 19:45 6:22/M
5 Tim Wilson Toledo OH 873 44 44 20:53 6:44/M
6 Bart Mefferd Toledo OH 824 43 90 22:40 7:19/M
7 Jacob Duwve Oregon OH 746 40 112 23:19 7:31/M
8 Shane Steinhardt Perrysburg OH 323 41 113 23:21 7:32/M
9 Scott Hosso North Ridgeville O 835 44 120 23:35 7:36/M
10 Joseph Pfeiffer Toledo OH 725 44 133 23:56 7:43/M
11 Troy Fowler Northwood OH 841 40 171 24:33 7:55/M
12 Ty Tracy Woodville OH 1053 41 198 25:10 8:07/M
13 Frank Buenrostro Bellvue OH 868 43 225 25:45 8:18/M
14 Ed Spackey Perrysburg OH 715 41 234 25:53 8:21/M
15 Robert Oberdorf Oregon OH 271 42 235 25:53 8:21/M
16 Jason Zilles Perrysburg OH 811 41 236 25:55 8:22/M
17 David Tobar Weston OH 813 44 242 26:02 8:24/M
18 James Bohland Oregon OH 753 41 265 26:28 8:32/M
19 Eric Haney Maumee OH 93 43 276 26:35 8:35/M
20 Dave Reed Toledo OH 723 42 295 27:03 8:44/M
21 Andy Ebright Findlay OH 842 43 296 27:03 8:44/M
22 Matt Reed Toledo OH 439 40 318 27:26 8:51/M
23 Brian Hayden Toledo OH 740 41 319 27:27 8:51/M
24 Matt Krueger Perrysburg OH 330 44 340 27:46 8:57/M
25 Mark Williams Maumee OH 812 41 342 27:47 8:58/M
26 Jamie Lipper Oregon OH 257 43 343 27:49 8:58/M
27 Donald Griswold Ottawa Lake MI 281 42 350 27:56 9:01/M
28 Tony Cici Northwood 844 42 378 28:16 9:07/M
29 Ronnie Closson Northwood OH 127 42 380 28:17 9:07/M
30 Chad Robbins Holland OH 60 43 395 28:28 9:11/M
31 Caine Kolinski Oregon OH 249 42 396 28:29 9:11/M
32 Mark Silva Dexter MI 718 42 418 28:49 9:18/M
33 Tim Sherman Northwood OH 818 40 434 29:06 9:23/M
34 Jeremy Weirich Oregon OH 765 43 447 29:24 9:29/M
35 Jason Bratton Wauseon OH 847 44 485 30:16 9:46/M
36 Ken Carey Northwood OH 130 44 505 30:51 9:57/M
37 Joe Bella Perrysburg OH 309 43 521 31:09 10:03/M
38 J.c. Harder Ottawa Lake MI 280 42 524 31:12 10:04/M
39 David Thomas Monvlova MI 814 43 530 31:18 10:06/M
40 Scott Huffman Oregon OH 1008 44 548 31:47 10:15/M
41 Kevin Swan Findlay OH 815 42 571 32:11 10:23/M
42 Gonzalo Castillo Sylvania OH 359 40 593 32:38 10:32/M
43 Dan Mathews Millbury OH 103 43 637 33:44 10:53/M
44 Allen Reinmeyer Cumming OH 722 40 654 34:08 11:01/M
45 John Kollm Coraopolis 734 40 756 37:28 12:05/M
46 Eric Bachar Toledo OH 860 40 757 37:29 12:05/M
47 Anthony Burek Perrysburg OH 750 40 780 38:43 12:29/M
48 Mike Heinze Toledo OH 437 43 809 39:55 12:53/M
49 Wyatt Ulrich Ellicott City MD 1044 44 827 40:42 13:08/M
50 Jim Brasic Fremont 900 43 850 41:37 13:25/M
51 Christopher Luther Oregon OH 982 44 868 42:23 13:40/M
52 Mary Jurski Oregon OH 243 41 907 46:13 14:55/M
53 Brad Friemoth Perrysburg OH 839 41 919 46:36 15:02/M
Top


Female 40 to 44




Total
Place Name City Bib No Age Overall Time Pace
1 Barb Geise Toledo OH 405 44 94 22:43 7:20/M
2 Traci Bash Bowling Green OH 484 44 100 23:00 7:25/M
3 Kelli Hosso North Ridgeville O 651 40 131 23:54 7:43/M
4 Christy Soncrant Toledo OH 534 42 141 23:58 7:44/M
5 Kelly Peitz Petersburg MI 332 44 146 24:07 7:47/M
6 Jennifer Strandberg Holt OH 63 40 167 24:29 7:54/M
7 Sarah Glinski Perrysburg OH 587 40 232 25:50 8:20/M
8 Jacquelin Davenport Perrysburg OH 592 43 238 25:58 8:23/M
9 Andrea Areddy Maumee OH 669 43 250 26:13 8:27/M
10 Elizabeth Keith Sylvania OH 649 40 258 26:21 8:30/M
11 Jenny Horak Holland 652 44 283 26:44 8:37/M
12 Jenny Wiles Swanton OH 1047 43 344 27:50 8:59/M
13 Erin Oconnell Toledo OH 557 42 345 27:51 8:59/M
14 Jennifer Spence Holland OH 58 42 356 28:01 9:02/M
15 Laura Williams Perrysburg OH 521 41 359 28:03 9:03/M
16 Christine Nowowiejski Toledo OH 636 43 365 28:09 9:05/M
17 Yvonne Thoma-Patton Oregon OH 993 42 368 28:11 9:05/M
18 Kristi Hoeft Martin OH 80 40 392 28:26 9:10/M
19 Jenny Robbins Holland OH 57 44 406 28:38 9:14/M
20 Stacy Bella Perrysburg OH 285 44 408 28:43 9:16/M
21 Jennifer Thomas Monclova 531 42 412 28:45 9:16/M
22 Joy Andrews Oregon OH 515 44 428 29:00 9:21/M
23 Dolly Sanchez Genoa OH 539 43 441 29:17 9:27/M
24 Tricia Cardenas North Ridgeville 112 43 443 29:19 9:27/M
25 Cebie Titgemeyer Curtice OH 1015 42 444 29:20 9:28/M
26 Brenda Bal Toledo OH 600 42 504 30:51 9:57/M
27 Theresa Bryson Lyons 595 43 517 31:06 10:02/M
28 Amy Isley Perrysburg OH 504 44 520 31:07 10:02/M
29 Denise Wells Oregon OH 524 42 523 31:10 10:03/M
30 Deb Chaney Perrysburg OH 1011 43 541 31:30 10:10/M
31 Lori Berryman Oregon OH 513 41 544 31:34 10:11/M
32 Tracy Donelly Curtice 928 42 546 31:40 10:13/M
33 Jennifer Pease Luckey OH 910 43 550 31:48 10:15/M
34 Kim Schubeck Hilliard 51 41 563 32:03 10:20/M
35 Malanie Buggr Toledo OH 1024 44 564 32:03 10:20/M
36 Tammy Bengela Toledo OH 597 44 582 32:25 10:27/M
37 Kerry Wolff Curtice OH 519 40 586 32:29 10:29/M
38 Martha Schultes Bowling Green OH 492 44 589 32:31 10:29/M
39 Trina Floyd Oregon OH 657 40 592 32:38 10:32/M
40 Cindy K. Moore Toledo OH 465 43 605 32:57 10:38/M
41 Sarah Cofer Columbus OH 661 40 613 33:10 10:42/M
42 Amy Stubleski La Salle 621 40 628 33:30 10:48/M
43 Amy Mathews Millbury OH 101 40 638 33:45 10:53/M
44 Angie Gall Toledo OH 976 42 656 34:09 11:01/M
45 Georgia Burling Oregon OH 999 40 682 34:56 11:16/M
46 Melissa Burek Perrysburg OH 594 44 693 35:17 11:23/M
47 Kelly Rister Toledo OH 412 43 712 36:01 11:37/M
48 Jennifer Sader Sylvania OH 493 44 727 36:34 11:48/M
49 Molly Mefferd Toledo OH 560 41 744 37:10 11:59/M
50 Elizabeth Martin Manassas 498 40 745 37:11 12:00/M
51 Jill Duwve Oregon OH 658 41 774 38:34 12:26/M
52 Connie Witt Martin 486 40 779 38:43 12:29/M
53 Chris Walendzak Oregon OH 526 44 789 39:15 12:40/M
54 Monica Taylor Bowling Green OH 489 43 795 39:30 12:45/M
55 Ann Marie Williams Maumee OH 520 42 802 39:51 12:51/M
56 Brandy Kaufman Perrysburg 921 40 806 39:53 12:52/M
57 Andrea Ulrich Ellicott City MD 1041 43 828 40:42 13:08/M
58 Heather Wishart-Smith Arlington VA 612 41 839 40:59 13:13/M
59 Rhonda Pfeiffer Toledo OH 551 44 857 41:57 13:32/M
60 Heather Dragun Monclova 509 42 863 42:18 13:39/M
61 Kolleen Kopchak Bradner OH 7 43 867 42:22 13:40/M
62 Gwen Jones Oregon OH 682 41 889 44:42 14:25/M
63 Rebecca Nelson Sylvania OH 679 40 894 45:15 14:36/M
64 Paula Barber Walbridge OH 686 40 896 45:20 14:37/M
65 Tanya Strayer Whitehouse OH 490 44 905 46:07 14:53/M
66 Jenifer Huber Temperance MI 506 43 906 46:12 14:54/M
67 Melanie Friemoth Perrysburg OH 507 41 918 46:36 15:02/M
68 Connie Lesher Genoa 36 40 947 49:29 15:58/M
69 Julie Krauis Attica MI 1071 41 951 49:32 15:59/M
70 Jennifer Reed Toledo OH 678 41 965 52:35 16:58/M
71 Lisa Keller Oregon OH 210 42 1013 59:31 19:12/M
Top


Male 45 to 49




Total
Place Name City Bib No Age Overall Time Pace
1 Tom Silva Maumee OH 97 48 14 19:03 6:09/M
2 Mike Huber Temperance OH 737 46 15 19:05 6:09/M
3 Jack Dias Toledo OH 420 47 42 20:44 6:41/M
4 Mike Skitowski Curtice OH 23 46 48 20:58 6:46/M
5 Tim Book Perrysburg OH 980 45 63 21:52 7:03/M
6 Lee Cuykendall Monroe MI 872 46 64 21:56 7:05/M
7 Con Chrysochoos Toledo OH 418 47 78 22:26 7:14/M
8 Darrell Cousino Toledo OH 428 49 82 22:33 7:16/M
9 David Theiss Toledo OH 710 47 114 23:21 7:32/M
10 Troy Licata Lambertville OH 894 47 116 23:23 7:33/M
11 Craig Wisniewski Oregon OH 705 48 128 23:50 7:41/M
12 Eric Dimalanta Medina OH 747 45 143 24:01 7:45/M
13 Michael Dorn Perrysburg OH 807 45 149 24:11 7:48/M
14 Doug Leader Bowling Green OH 4 48 160 24:23 7:52/M
15 John Soncrant Toledo OH 716 46 163 24:24 7:52/M
16 Larry Lowe Woodville OH 874 45 178 24:43 7:58/M
17 Kevin Halligan Perrysburg OH 331 45 182 24:49 8:00/M
18 Anthony Silva Wadsworth 445 49 194 25:03 8:05/M
19 David Claydon Luckey OH 748 49 206 25:16 8:09/M
20 Douglas Nusbaum Rossford OH 347 45 220 25:29 8:13/M
21 Tom Meier Oregon OH 1073 49 231 25:50 8:20/M
22 Sam Kaplan Toledo OH 948 47 281 26:39 8:36/M
23 Jim Keilholz Oregon OH 232 47 293 26:58 8:42/M
24 Dillon Ashton Pemberville OH 1057 45 335 27:42 8:56/M
25 Al Rizo Jr. Oregon OH 1025 46 477 29:53 9:38/M
26 Tim Prand Perrysburg OH 959 49 479 29:57 9:40/M
27 Craig Gurney Northwood OH 838 46 539 31:25 10:08/M
28 Chuck Barlage Oregon OH 757 46 561 32:02 10:20/M
29 Chet Servick Maumee OH 92 47 595 32:41 10:33/M
30 Jeff Hempel Ida MI 782 45 596 32:42 10:33/M
31 Edward Silva Oregon OH 817 45 631 33:34 10:50/M
32 Jim McKendrick Edinboro 32 45 668 34:41 11:11/M
33 John Rodriguez Toledo OH 422 46 699 35:29 11:27/M
34 Bryan Peschel Toledo OH 854 45 750 37:18 12:02/M
35 Mike Martin Manassas 826 47 899 45:55 14:49/M
36 Kevin Strayer Whitehouse OH 1040 45 903 46:04 14:52/M
37 Dan Alford Dearborn MI 862 46 911 46:22 14:57/M
38 Nathan Koch Rossford 946 45 964 52:17 16:52/M
Top


Female 45 to 49




Total
Place Name City Bib No Age Overall Time Pace
1 Tracy Evans Perrysburg OH 294 45 97 22:51 7:22/M
2 Dianna Ashton Luckey OH 71 48 110 23:14 7:30/M
3 Karyn Keilholz Oregon OH 194 47 185 24:53 8:02/M
4 Stephanie Keefer Maumee OH 650 48 191 25:00 8:04/M
5 Susan Ruff Toledo OH 541 48 211 25:20 8:10/M
6 Effi Theiss Toledo OH 617 45 233 25:51 8:20/M
7 Dawn Whitaker Toledo OH 395 46 270 26:32 8:34/M
8 Sherry Priesman Oak Harbor OH 632 49 303 27:10 8:46/M
9 Ann Brown Middletown DE 1048 49 304 27:11 8:46/M
10 Caris Dykema Oregon OH 171 46 305 27:12 8:46/M
11 Irina Ashton Pemberville OH 1056 45 336 27:43 8:56/M
12 Sarah Dias Toledo OH 385 48 353 28:01 9:02/M
13 Kim Palmer Perrysburg OH 1049 46 358 28:03 9:03/M
14 Lisa Sentle Gibsonburg OH 46 46 363 28:06 9:04/M
15 Honey Rizo Oregon OH 1026 46 364 28:06 9:04/M
16 Dorene Schmitz Northwood OH 1017 46 398 28:30 9:12/M
17 Yvonne Cook Haskins OH 938 48 415 28:45 9:16/M
18 Tracy Dresser Martin 78 49 458 29:34 9:32/M
19 Leann Marek Rossford OH 345 49 468 29:42 9:35/M
20 Laura Monon Perrysburg OH 1050 46 526 31:14 10:05/M
21 Christine Bertok Oregon OH 188 47 535 31:23 10:07/M
22 Ann McCcormick Lyons OH 496 47 553 31:54 10:17/M
23 Kelda Strastburg Toledo OH 393 45 568 32:08 10:22/M
24 Erin Anderson Holland OH 53 46 577 32:19 10:25/M
25 Michelle Prand Perrysburg OH 958 46 587 32:30 10:29/M
26 Cristina Whitmore Toledo OH 396 45 630 33:32 10:49/M
27 Michelle Pelz Oregon OH 554 45 641 33:49 10:55/M
28 Michelle Mosiniak Curtice OH 495 48 709 35:59 11:36/M
29 Hiyam Aziz Oregon OH 178 46 716 36:10 11:40/M
30 Janice Servick Maumee OH 86 47 736 37:01 11:56/M
31 Tonda Wiles-Koszycki Toledo OH 952 47 754 37:27 12:05/M
32 Emily Isbell Oregon OH 158 47 763 37:51 12:13/M
33 Lori Turner Perrysburg OH 291 49 768 38:08 12:18/M
34 Heather Derby Oregon OH 154 47 845 41:10 13:17/M
35 Judie Verb Fountain Hills AZ 1079 47 847 41:19 13:20/M
36 Amy Hempel Ida MI 683 47 895 45:18 14:37/M
37 Amy Reitzel Ottawa Lake MI 279 47 897 45:28 14:40/M
38 Amy Stein Toledo OH 413 49 898 45:29 14:40/M
39 Angie Finch Swanton OH 508 47 900 45:55 14:49/M
40 Kathleen Walsh Rossford OH 344 49 916 46:31 15:00/M
41 Jeana Sutphin Oregon OH 184 46 970 52:53 17:04/M
42 Lori Graczyk Toledo OH 406 48 980 53:26 17:14/M
43 Sharon Alford Dearborn MI 517 46 992 54:24 17:33/M
44 Cari Jones Oregon OH 159 46 993 54:32 17:35/M
Top


Male 50 to 54




Total
Place Name City Bib No Age Overall Time Pace
1 Todd Schiller Oak Harbor OH 995 54 39 20:37 6:39/M
2 Christopher Olivarez Oregon OH 235 53 84 22:35 7:17/M
3 Keith Stowell Morenci MI 714 50 102 23:03 7:26/M
4 Jeff Smith Oregon OH 896 51 109 23:13 7:29/M
5 Alan Isbell Oregon OH 256 52 119 23:34 7:36/M
6 Michael Ahrendt Toledo OH 443 50 124 23:44 7:39/M
7 Kal Awwad Maumee OH 984 51 132 23:54 7:43/M
8 Tim Peitz Petersburg, Mi MI 334 51 165 24:26 7:53/M
9 Chris Gedert Toledo OH 442 53 172 24:34 7:55/M
10 John Emerson Millbury 105 51 196 25:09 8:07/M
11 John Willson Erie MI 994 50 197 25:10 8:07/M
12 Bradley Barshel Oregon OH 252 51 199 25:12 8:08/M
13 Jeff Ball Oregon OH 1065 53 247 26:08 8:26/M
14 Karl Hauser Monroe MI 108 50 253 26:16 8:28/M
15 Willis Morse Sylvania OH 1018 53 262 26:25 8:31/M
16 Mark Keller Oregon OH 274 54 290 26:54 8:41/M
17 Matt Plessner Northwood OH 129 51 308 27:14 8:47/M
18 Matthew Bertok Oregon OH 237 51 317 27:26 8:51/M
19 Peter Fellman Millbury OH 745 51 328 27:37 8:55/M
20 Anthony Esposito Toledo OH 988 51 388 28:24 9:10/M
21 Avery Cooper Toledo OH 427 52 440 29:16 9:26/M
22 Mark Verroco Findlay OH 863 53 495 30:28 9:50/M
23 Ron Szychowski Toledo OH 969 53 538 31:24 10:08/M
24 Philip Cook Oregon OH 981 52 557 31:59 10:19/M
25 Roger Rohrs Perrysburg OH 721 52 620 33:21 10:45/M
26 Dan Horak Holland OH 836 50 622 33:25 10:47/M
27 Clarke Hutchinson Toledo OH 857 51 651 34:03 10:59/M
28 Dave Dykema Oregon OH 253 51 678 34:48 11:14/M
29 Doug Humbert Three Rivers MI 940 54 684 34:56 11:16/M
30 Ron Newmister Genoa OH 42 52 726 36:33 11:47/M
31 Merle Dech Toledo OH 415 54 834 40:55 13:12/M
32 Kerry Alexander Staunton OH 352 54 872 42:30 13:43/M
33 Gary Chamberlain Vickery 845 51 930 47:26 15:18/M
34 Ron Gall Toledo OH 977 50 934 47:46 15:25/M
Top


Female 50 to 54




Total
Place Name City Bib No Age Overall Time Pace
1 Patti Rapp Sylvania OH 358 53 148 24:10 7:48/M
2 Rochelle Peters Bowling Green OH 552 50 166 24:27 7:53/M
3 Terrie Gibbons Oregon OH 172 51 204 25:14 8:08/M
4 Julie Boney Rossford OH 342 50 210 25:19 8:10/M
5 Jan Lehman Rossford OH 343 54 240 26:00 8:23/M
6 Darlynn Huntermark Perrysburg OH 286 50 288 26:50 8:39/M
7 Monica Urbanski Toledo OH 960 54 312 27:21 8:49/M
8 Christine Gladieux Oregon OH 216 50 320 27:27 8:51/M
9 Mary Szychowski Toledo OH 968 54 321 27:29 8:52/M
10 Tammey Plessner Northwood OH 116 50 341 27:46 8:57/M
11 Jane Rogowski Toledo OH 458 51 397 28:29 9:11/M
12 Theresa Lagger Northwood OH 571 51 417 28:48 9:17/M
13 Cathy Klewer Oregon OH 173 54 437 29:10 9:25/M
14 Rose Chamberlain Vickery 444 51 476 29:48 9:37/M
15 Sheri Sheahan Curtice OH 14 51 542 31:31 10:10/M
16 Deborah Lipson Sylvania OH 1063 50 562 32:02 10:20/M
17 Constance Davis Woodville 961 52 580 32:22 10:26/M
18 Stacey Dietrich Swanton OH 1002 51 599 32:47 10:35/M
19 Cindy Ross Perrysburg OH 297 52 603 32:54 10:37/M
20 Betsy Wismer Perrysburg OH 611 50 652 34:04 10:59/M
21 Cathy Owen Toledo OH 555 54 692 35:17 11:23/M
22 Traci Riechman Oak Harbor OH 144 51 694 35:22 11:25/M
23 Jenny Barlos Maumee OH 84 54 705 35:40 11:30/M
24 Mindy Yap Rossford OH 340 51 804 39:52 12:52/M
25 Patsy Alexander Staunton OH 351 54 873 42:31 13:43/M
26 Sharon Szymanski Rossford 917 53 915 46:30 15:00/M
27 Lori Heldt Toledo OH 684 51 927 47:01 15:10/M
28 Laurie Dombi Oregon OH 926 50 933 47:45 15:24/M
29 Tracy Cain Charlotte 8 52 940 48:28 15:38/M
30 Nancy Preest Northwood OH 113 51 976 53:11 17:09/M
31 Heidi Lind Oregon OH 680 54 981 53:28 17:15/M
32 Kim Sader Bowling Green OH 677 50 985 53:41 17:19/M
33 Cecilia Broshious Oregon OH 153 53 999 55:50 18:01/M
34 Charlotte Newmister Genoa 38 51 1004 56:21 18:11/M
35 Robin Wagner Three Rivers MI 377 52 1007 56:31 18:14/M
Top


Male 55 to 59




Total
Place Name City Bib No Age Overall Time Pace
1 Michael Sautter Allen Park MI 720 55 52 21:18 6:52/M
2 Edgar Rapp Sylvania OH 360 57 57 21:29 6:56/M
3 Marc Ensign Oregon OH 239 55 87 22:36 7:17/M
4 Mark Sulewski Maumee OH 98 58 89 22:37 7:18/M
5 Bob Sheahan Curtice OH 21 55 190 24:59 8:04/M
6 Tom Kolena Toledo OH 778 57 221 25:30 8:14/M
7 Russ Allan Toledo OH 851 58 226 25:46 8:19/M
8 John Schachte Cary 852 55 244 26:06 8:25/M
9 Robert Bowers Northwood OH 752 58 271 26:32 8:34/M
10 J.d. McCoy Sylvania OH 362 57 272 26:32 8:34/M
11 Curt Riechman Oak Harbor 939 56 287 26:49 8:39/M
12 John King Toledo OH 429 59 292 26:58 8:42/M
13 Ray Zielinski Port Clinton 883 58 357 28:02 9:03/M
14 Scott Smith Fremont OH 33 57 425 28:55 9:20/M
15 Steven Cieply Toledo OH 749 57 475 29:47 9:36/M
16 Keith Lawn Temperance MI 1012 58 518 31:06 10:02/M
17 Jim Lagger Northwood OH 829 56 525 31:13 10:04/M
18 Bill Haas Oregon OH 945 55 606 32:57 10:38/M
19 Michael Piatz Delta 30 56 635 33:42 10:52/M
20 Matthew Mazur Chicago IL 825 58 658 34:12 11:02/M
21 Mark Brunsman Perrysburg OH 327 55 661 34:17 11:04/M
22 Greg Hook Oregon OH 990 55 758 37:31 12:06/M
23 Joseph Hrabousky Oregon OH 255 59 797 39:39 12:47/M
24 Larry Wilhelm Oregon OH 236 57 821 40:15 12:59/M
25 Dave Kipplen Oregon OH 267 58 887 44:11 14:15/M
26 Tim Szymanski Rossford MI 918 55 913 46:28 14:59/M
27 Timothy Mooney Toledo OH 41 55 957 49:52 16:05/M
Top


Female 55 to 59




Total
Place Name City Bib No Age Overall Time Pace
1 Joan Mathews Maumee OH 89 59 117 23:27 7:34/M
2 Dorothy Hafertepen Park Hills KY 656 56 130 23:53 7:42/M
3 Kathy Wilhelm Oregon OH 201 56 224 25:41 8:17/M
4 Janis Clay Toledo OH 398 58 307 27:12 8:46/M
5 Lynne Breier Oregon OH 664 55 496 30:31 9:51/M
6 Janet Burtch Toledo OH 663 58 639 33:45 10:53/M
7 Christine Henning Toledo OH 654 58 696 35:25 11:25/M
8 Carol Kinsel Oregon OH 502 59 739 37:05 11:58/M
9 Kay Lesle-Pilner Toledo OH 681 55 760 37:36 12:08/M
10 Dana Cogar Falls Church VA 956 58 835 40:55 13:12/M
11 Joan Miller Oregon OH 944 57 856 41:57 13:32/M
12 Lisa Leese Oregpn OH 570 55 862 42:18 13:39/M
13 Lisa Vulinec Cary 528 57 877 42:42 13:46/M
14 Kimberly Smith Lindsey OH 491 57 878 42:45 13:47/M
15 Cindy St. John Perrysburg OH 289 56 881 43:04 13:54/M
16 Maricarol Hrabousky Oregon OH 157 57 884 43:37 14:04/M
17 Dianne Schubeck Garrettsville 35 57 956 49:52 16:05/M
18 Carolyn Brandt Curtice 512 56 966 52:35 16:58/M
19 Kathie Hughes Fremont 884 58 974 53:06 17:08/M
20 Susan Munch Northwood OH 114 58 977 53:11 17:09/M
Top


Male 60 to 64




Total
Place Name City Bib No Age Overall Time Pace
1 Robert Kayden Elmore 780 63 101 23:01 7:25/M
2 Tom Giffin 1067 60 123 23:40 7:38/M
3 Thomas Villagomez Swanton OH 708 61 125 23:46 7:40/M
4 Larry Hafertepen Park Hills KY 741 61 176 24:41 7:58/M
5 Joe Weiher Northwood OH 766 63 177 24:42 7:58/M
6 Fritz Byers Waterville 790 60 280 26:39 8:36/M
7 George Ho Oregon OH 254 64 310 27:17 8:48/M
8 Len Gerber Oak Harbor OH 149 60 314 27:22 8:50/M
9 Robert Okulski Millbury OH 104 62 323 27:30 8:52/M
10 Ken Leese Oregon OH 244 61 333 27:39 8:55/M
11 Robert Wichmann Murrysville 110 64 347 27:51 8:59/M
12 Thomas Biblewski Toledo OH 417 64 348 27:52 8:59/M
13 Dennis Sulewski Lakeside Park KY 816 60 442 29:18 9:27/M
14 Patrick Francis Perrysburg OH 314 61 481 30:11 9:44/M
15 Craig Schaefer Perrysburg OH 819 63 537 31:24 10:08/M
16 Richard Morgan Port Clinton 729 60 555 31:55 10:18/M
17 Ken South Williston OH 451 61 585 32:27 10:28/M
18 Douglas Kemp Perrysburg OH 329 60 948 49:29 15:58/M
19 Dan Gross Oregon OH 230 62 990 54:14 17:30/M
Top


Female 60 to 64




Total
Place Name City Bib No Age Overall Time Pace
1 Martha Quiroga Temperance MI 631 60 556 31:57 10:18/M
2 Theresa Hilt Gibsonburg 48 60 753 37:23 12:04/M
3 Linda Shaw Sylvania OH 357 62 761 37:48 12:12/M
4 Mary South Williston OH 450 60 767 38:06 12:17/M
5 Patricia Tebbt Toledo OH 394 63 917 46:35 15:02/M
6 Mary Steitz Sylvania OH 533 60 926 46:55 15:08/M
7 Susan Slye Irwin OH 65 60 931 47:39 15:22/M
8 Corrine Sullivan Groveport 676 62 943 49:18 15:54/M
9 Maureen Sullivan Oregon OH 675 62 944 49:18 15:54/M
10 Debra Kemp Perrysburg OH 302 60 945 49:28 15:57/M
11 Michele Gross Oregon OH 156 60 991 54:15 17:30/M
12 Helen Kipplen Oregon OH 211 62 1014 59:31 19:12/M
Top


Male 65 to 69




Total
Place Name City Bib No Age Overall Time Pace
1 Donald Bashor Wauseon OH 756 65 38 20:35 6:38/M
2 John Newton Curtice OH 777 67 46 20:56 6:45/M
3 Ron Carpenter Hudson MI 789 66 51 21:14 6:51/M
4 Tom Pickerel Genoa OH 776 65 95 22:48 7:21/M
5 Dan Marchal Northwood OH 138 65 181 24:45 7:59/M
6 Robert Biglin Toledo OH 754 65 266 26:30 8:33/M
7 Bob Shaw Sylvania OH 364 65 286 26:48 8:39/M
8 John Flahie Monclova OH 107 66 306 27:12 8:46/M
9 James Bradley Perrysburg OH 312 66 332 27:38 8:55/M
10 Ron Westfall Perrysburg OH 324 66 381 28:17 9:07/M
11 Don Detlef Perrysburg OH 328 66 512 31:04 10:01/M
12 Chris Conroy Maumee OH 91 67 720 36:20 11:43/M
13 Lee Mitchell Sylvania OH 925 65 855 41:55 13:31/M
14 Mike Simms Allen Park MI 717 66 909 46:17 14:56/M
15 David Waggoner Michigan MI 895 69 939 48:21 15:36/M
16 Michael Molnar Oregon OH 270 65 958 50:13 16:12/M
17 Mike Przybylski Oregon OH 268 66 1006 56:23 18:11/M
Top


Female 65 to 69




Total
Place Name City Bib No Age Overall Time Pace
1 Shirley Mominee Genoa OH 39 66 854 41:45 13:28/M
2 Marie Molnar Oregon OH 213 66 883 43:25 14:00/M
3 Pat Groves Toledo OH 586 69 954 49:45 16:03/M
4 Lauri White Oregon OH 166 65 955 49:45 16:03/M
5 Diana Przybylski Oregon OH 212 65 1005 56:23 18:11/M
Top


Male 70 to 74




Total
Place Name City Bib No Age Overall Time Pace
1 Jeff Acocks Perrysburg OH 311 71 349 27:52 8:59/M
2 William Gosline Toledo OH 436 71 379 28:16 9:07/M
3 Thomas Wiles Perrysburg OH 764 73 501 30:46 9:55/M
4 John Eisenhart Oregon OH 226 70 545 31:36 10:12/M
5 Jerome Tomc Toledo OH 423 73 751 37:20 12:03/M
6 Larry Oberdorf Rossford OH 350 70 781 38:49 12:31/M
7 Cyril Steinhauser Lasalle MI 69 74 929 47:14 15:14/M
Top


Female 70 to 74




Total
Place Name City Bib No Age Overall Time Pace
1 Mary Steinhauser Lasalle MI 68 70 683 34:56 11:16/M
2 Mary Lou Ramasocky Oregon OH 164 71 882 43:21 13:59/M
3 Joyce Carnavle Maumee OH 85 70 994 54:32 17:35/M
4 Candy Postlewaite Northwood OH 548 72 1019 1:05:52 21:15/M
Top


Male 75 to 79




Total
Place Name City Bib No Age Overall Time Pace
1 James Lagger Perrysburg OH 320 75 484 30:15 9:45/M
2 Ron Wagner Woodville MI 453 75 679 34:52 11:15/M
Top


Female 75 to 79




Total
Place Name City Bib No Age Overall Time Pace
1 Lillian Lagger Oregon OH 160 76 892 44:58 14:30/M
Top


Male 80 to 84




Total
Place Name City Bib No Age Overall Time Pace
1 Walter Schimpf New Washington OH 1010 83 626 33:29 10:48/M
2 Everett Luoma Adrian MI 985 84 860 42:15 13:38/M
Top


Male 85 and up




Total
Place Name City Bib No Age Overall Time Pace
1 Bill Davis Fostoria OH 996 85 843 41:05 13:15/M